sensor_id;sensor_type;location;lat;lon;timestamp;pressure;altitude;pressure_sealevel;temperature;humidity
60852;BME280;48553;50.766;2.900;2023-12-04T00:01:44;100272.16;;;1.12;96.54
60852;BME280;48553;50.766;2.900;2023-12-04T00:04:45;100271.06;;;1.13;96.37
60852;BME280;48553;50.766;2.900;2023-12-04T00:07:45;100260.53;;;1.11;97.05
60852;BME280;48553;50.766;2.900;2023-12-04T00:10:46;100251.38;;;1.12;96.92
60852;BME280;48553;50.766;2.900;2023-12-04T00:13:46;100254.06;;;1.12;97.09
60852;BME280;48553;50.766;2.900;2023-12-04T00:16:47;100247.56;;;1.13;96.67
60852;BME280;48553;50.766;2.900;2023-12-04T00:19:47;100245.97;;;1.12;96.33
60852;BME280;48553;50.766;2.900;2023-12-04T00:22:47;100232.75;;;1.11;96.75
60852;BME280;48553;50.766;2.900;2023-12-04T00:25:48;100236.25;;;1.11;96.84
60852;BME280;48553;50.766;2.900;2023-12-04T00:28:48;100220.59;;;1.13;96.44
60852;BME280;48553;50.766;2.900;2023-12-04T00:31:49;100221.91;;;1.16;96.91
60852;BME280;48553;50.766;2.900;2023-12-04T00:34:49;100217.09;;;1.13;96.70
60852;BME280;48553;50.766;2.900;2023-12-04T00:37:50;100216.28;;;1.12;96.85
60852;BME280;48553;50.766;2.900;2023-12-04T00:40:50;100205.78;;;1.11;97.03
60852;BME280;48553;50.766;2.900;2023-12-04T00:43:50;100205.22;;;1.14;96.41
60852;BME280;48553;50.766;2.900;2023-12-04T00:46:51;100191.72;;;1.14;96.38
60852;BME280;48553;50.766;2.900;2023-12-04T00:49:51;100183.63;;;1.14;96.77
60852;BME280;48553;50.766;2.900;2023-12-04T00:52:52;100186.63;;;1.12;96.74
60852;BME280;48553;50.766;2.900;2023-12-04T00:55:52;100183.13;;;1.12;96.24
60852;BME280;48553;50.766;2.900;2023-12-04T00:58:53;100180.41;;;1.12;96.54
60852;BME280;48553;50.766;2.900;2023-12-04T01:01:53;100168.25;;;1.14;96.94
60852;BME280;48553;50.766;2.900;2023-12-04T01:04:54;100168.53;;;1.13;96.41
60852;BME280;48553;50.766;2.900;2023-12-04T01:07:54;100158.53;;;1.13;96.47
60852;BME280;48553;50.766;2.900;2023-12-04T01:10:55;100161.22;;;1.13;96.73
60852;BME280;48553;50.766;2.900;2023-12-04T01:13:55;100148.03;;;1.12;96.51
60852;BME280;48553;50.766;2.900;2023-12-04T01:16:56;100140.16;;;1.15;96.40
60852;BME280;48553;50.766;2.900;2023-12-04T01:19:56;100148.56;;;1.14;96.53
60852;BME280;48553;50.766;2.900;2023-12-04T01:22:57;100135.06;;;1.14;96.37
60852;BME280;48553;50.766;2.900;2023-12-04T01:25:58;100135.34;;;1.12;96.32
60852;BME280;48553;50.766;2.900;2023-12-04T01:28:59;100127.53;;;1.11;96.44
60852;BME280;48553;50.766;2.900;2023-12-04T01:31:59;100121.06;;;1.12;96.24
60852;BME280;48553;50.766;2.900;2023-12-04T01:35:00;100120.22;;;1.11;96.68
60852;BME280;48553;50.766;2.900;2023-12-04T01:38:00;100120.75;;;1.13;96.50
60852;BME280;48553;50.766;2.900;2023-12-04T01:41:01;100112.97;;;1.12;96.27
60852;BME280;48553;50.766;2.900;2023-12-04T01:44:01;100099.47;;;1.12;96.55
60852;BME280;48553;50.766;2.900;2023-12-04T01:47:03;100097.50;;;1.17;96.10
60852;BME280;48553;50.766;2.900;2023-12-04T01:50:05;100095.91;;;1.16;96.47
60852;BME280;48553;50.766;2.900;2023-12-04T01:53:06;100088.34;;;1.13;96.46
60852;BME280;48553;50.766;2.900;2023-12-04T01:56:07;100090.25;;;1.13;96.74
60852;BME280;48553;50.766;2.900;2023-12-04T01:59:08;100080.78;;;1.15;96.90
60852;BME280;48553;50.766;2.900;2023-12-04T02:02:08;100074.88;;;1.13;96.49
60852;BME280;48553;50.766;2.900;2023-12-04T02:05:11;100075.19;;;1.12;96.60
60852;BME280;48553;50.766;2.900;2023-12-04T02:08:11;100071.38;;;1.13;96.28
60852;BME280;48553;50.766;2.900;2023-12-04T02:11:12;100060.56;;;1.13;96.45
60852;BME280;48553;50.766;2.900;2023-12-04T02:14:12;100070.28;;;1.14;96.15
60852;BME280;48553;50.766;2.900;2023-12-04T02:17:14;100056.22;;;1.17;96.52
60852;BME280;48553;50.766;2.900;2023-12-04T02:20:16;100057.28;;;1.16;96.53
60852;BME280;48553;50.766;2.900;2023-12-04T02:23:17;100057.00;;;1.17;96.30
60852;BME280;48553;50.766;2.900;2023-12-04T02:26:24;100056.50;;;1.15;95.89
60852;BME280;48553;50.766;2.900;2023-12-04T02:29:46;100056.50;;;1.15;96.14
60852;BME280;48553;50.766;2.900;2023-12-04T02:32:48;100055.41;;;1.16;96.09
60852;BME280;48553;50.766;2.900;2023-12-04T02:35:50;100047.88;;;1.13;95.92
60852;BME280;48553;50.766;2.900;2023-12-04T02:38:52;100046.50;;;1.16;96.26
60852;BME280;48553;50.766;2.900;2023-12-04T02:41:53;100029.22;;;1.17;95.80
60852;BME280;48553;50.766;2.900;2023-12-04T02:44:54;100016.81;;;1.16;96.52
60852;BME280;48553;50.766;2.900;2023-12-04T02:47:54;100025.41;;;1.18;95.95
60852;BME280;48553;50.766;2.900;2023-12-04T02:50:54;100027.13;;;1.14;96.25
60852;BME280;48553;50.766;2.900;2023-12-04T02:53:55;100012.75;;;1.18;96.12
60852;BME280;48553;50.766;2.900;2023-12-04T02:56:55;100011.94;;;1.18;95.90
60852;BME280;48553;50.766;2.900;2023-12-04T02:59:56;100007.63;;;1.17;96.33
60852;BME280;48553;50.766;2.900;2023-12-04T03:02:56;100000.63;;;1.16;95.63
60852;BME280;48553;50.766;2.900;2023-12-04T03:05:56;100000.34;;;1.17;95.82
60852;BME280;48553;50.766;2.900;2023-12-04T03:08:58;99992.25;;;1.17;95.85
60852;BME280;48553;50.766;2.900;2023-12-04T03:11:59;99979.53;;;1.18;95.45
60852;BME280;48553;50.766;2.900;2023-12-04T03:14:59;99980.66;;;1.17;95.91
60852;BME280;48553;50.766;2.900;2023-12-04T03:18:00;99975.50;;;1.20;95.97
60852;BME280;48553;50.766;2.900;2023-12-04T03:21:01;99971.44;;;1.18;95.66
60852;BME280;48553;50.766;2.900;2023-12-04T03:24:01;99975.25;;;1.17;96.18
60852;BME280;48553;50.766;2.900;2023-12-04T03:27:02;99971.75;;;1.16;95.73
60852;BME280;48553;50.766;2.900;2023-12-04T03:30:03;99964.47;;;1.17;96.14
60852;BME280;48553;50.766;2.900;2023-12-04T03:33:04;99957.44;;;1.16;95.83
60852;BME280;48553;50.766;2.900;2023-12-04T03:36:05;99948.56;;;1.15;95.51
60852;BME280;48553;50.766;2.900;2023-12-04T03:39:05;99932.06;;;1.17;95.39
60852;BME280;48553;50.766;2.900;2023-12-04T03:42:06;99929.59;;;1.20;95.11
60852;BME280;48553;50.766;2.900;2023-12-04T03:45:07;99938.78;;;1.19;95.59
60852;BME280;48553;50.766;2.900;2023-12-04T03:48:07;99939.91;;;1.18;95.53
60852;BME280;48553;50.766;2.900;2023-12-04T03:51:07;99927.47;;;1.17;95.56
60852;BME280;48553;50.766;2.900;2023-12-04T03:54:08;99926.69;;;1.17;95.34
60852;BME280;48553;50.766;2.900;2023-12-04T03:57:08;99931.28;;;1.16;95.58
60852;BME280;48553;50.766;2.900;2023-12-04T04:00:09;99935.56;;;1.17;95.08
60852;BME280;48553;50.766;2.900;2023-12-04T04:03:10;99925.66;;;1.13;95.01
60852;BME280;48553;50.766;2.900;2023-12-04T04:06:10;99934.50;;;1.18;94.92
60852;BME280;48553;50.766;2.900;2023-12-04T04:09:11;99926.69;;;1.17;94.75
60852;BME280;48553;50.766;2.900;2023-12-04T04:12:11;99937.69;;;1.20;94.69
60852;BME280;48553;50.766;2.900;2023-12-04T04:15:12;99941.75;;;1.18;94.76
60852;BME280;48553;50.766;2.900;2023-12-04T04:18:12;99940.19;;;1.17;95.01
60852;BME280;48553;50.766;2.900;2023-12-04T04:21:13;99932.06;;;1.17;94.63
60852;BME280;48553;50.766;2.900;2023-12-04T04:24:13;99926.91;;;1.20;94.64
60852;BME280;48553;50.766;2.900;2023-12-04T04:27:13;99916.41;;;1.19;94.47
60852;BME280;48553;50.766;2.900;2023-12-04T04:30:14;99912.06;;;1.18;94.48
60852;BME280;48553;50.766;2.900;2023-12-04T04:33:14;99905.88;;;1.17;94.43
60852;BME280;48553;50.766;2.900;2023-12-04T04:36:15;99891.31;;;1.18;94.37
60852;BME280;48553;50.766;2.900;2023-12-04T04:39:15;99886.19;;;1.17;94.66
60852;BME280;48553;50.766;2.900;2023-12-04T04:42:16;99874.31;;;1.18;95.11
60852;BME280;48553;50.766;2.900;2023-12-04T04:45:16;99854.34;;;1.19;95.01
60852;BME280;48553;50.766;2.900;2023-12-04T04:48:16;99833.53;;;1.19;95.09
60852;BME280;48553;50.766;2.900;2023-12-04T04:51:17;99827.34;;;1.19;95.34
60852;BME280;48553;50.766;2.900;2023-12-04T04:54:17;99833.81;;;1.18;94.88
60852;BME280;48553;50.766;2.900;2023-12-04T04:57:18;99829.25;;;1.18;95.15
60852;BME280;48553;50.766;2.900;2023-12-04T05:00:18;99836.22;;;1.19;94.61
60852;BME280;48553;50.766;2.900;2023-12-04T05:03:19;99858.63;;;1.20;95.02
60852;BME280;48553;50.766;2.900;2023-12-04T05:06:19;99841.34;;;1.21;94.38
60852;BME280;48553;50.766;2.900;2023-12-04T05:09:19;99841.13;;;1.17;94.59
60852;BME280;48553;50.766;2.900;2023-12-04T05:12:20;99843.53;;;1.19;94.42
60852;BME280;48553;50.766;2.900;2023-12-04T05:15:20;99838.34;;;1.22;93.86
60852;BME280;48553;50.766;2.900;2023-12-04T05:18:21;99834.66;;;1.18;94.36
60852;BME280;48553;50.766;2.900;2023-12-04T05:21:21;99834.34;;;1.20;93.96
60852;BME280;48553;50.766;2.900;2023-12-04T05:24:22;99818.13;;;1.20;93.94
60852;BME280;48553;50.766;2.900;2023-12-04T05:27:22;99811.16;;;1.19;94.48
60852;BME280;48553;50.766;2.900;2023-12-04T05:30:22;99810.66;;;1.17;94.53
60852;BME280;48553;50.766;2.900;2023-12-04T05:33:23;99795.75;;;1.19;94.10
60852;BME280;48553;50.766;2.900;2023-12-04T05:36:24;99783.38;;;1.18;94.31
60852;BME280;48553;50.766;2.900;2023-12-04T05:39:24;99779.28;;;1.21;94.29
60852;BME280;48553;50.766;2.900;2023-12-04T05:42:25;99767.97;;;1.19;94.38
60852;BME280;48553;50.766;2.900;2023-12-04T05:45:26;99762.56;;;1.19;94.16
60852;BME280;48553;50.766;2.900;2023-12-04T05:48:26;99779.28;;;1.21;94.01
60852;BME280;48553;50.766;2.900;2023-12-04T05:51:27;99767.19;;;1.18;93.98
60852;BME280;48553;50.766;2.900;2023-12-04T05:54:27;99767.69;;;1.20;93.76
60852;BME280;48553;50.766;2.900;2023-12-04T05:57:28;99775.78;;;1.20;93.83
60852;BME280;48553;50.766;2.900;2023-12-04T06:00:28;99758.75;;;1.20;94.06
60852;BME280;48553;50.766;2.900;2023-12-04T06:03:28;99766.56;;;1.21;94.17
60852;BME280;48553;50.766;2.900;2023-12-04T06:06:29;99770.97;;;1.17;93.81
60852;BME280;48553;50.766;2.900;2023-12-04T06:09:29;99768.06;;;1.14;93.94
60852;BME280;48553;50.766;2.900;2023-12-04T06:12:30;99773.94;;;1.16;94.19
60852;BME280;48553;50.766;2.900;2023-12-04T06:15:31;99761.78;;;1.18;93.74
60852;BME280;48553;50.766;2.900;2023-12-04T06:18:31;99746.69;;;1.17;94.10
60852;BME280;48553;50.766;2.900;2023-12-04T06:21:32;99745.88;;;1.17;94.41
60852;BME280;48553;50.766;2.900;2023-12-04T06:24:32;99752.88;;;1.18;94.33
60852;BME280;48553;50.766;2.900;2023-12-04T06:27:33;99742.38;;;1.16;94.44
60852;BME280;48553;50.766;2.900;2023-12-04T06:30:34;99729.69;;;1.17;94.56
60852;BME280;48553;50.766;2.900;2023-12-04T06:33:35;99734.19;;;1.21;94.46
60852;BME280;48553;50.766;2.900;2023-12-04T06:36:38;99717.22;;;1.21;94.58
60852;BME280;48553;50.766;2.900;2023-12-04T06:39:39;99707.81;;;1.18;94.78
60852;BME280;48553;50.766;2.900;2023-12-04T06:42:40;99690.28;;;1.16;95.45
60852;BME280;48553;50.766;2.900;2023-12-04T06:45:41;99686.00;;;1.15;95.38
60852;BME280;48553;50.766;2.900;2023-12-04T06:48:42;99670.53;;;1.20;95.33
60852;BME280;48553;50.766;2.900;2023-12-04T06:51:43;99662.13;;;1.22;95.13
60852;BME280;48553;50.766;2.900;2023-12-04T06:54:43;99661.63;;;1.20;95.54
60852;BME280;48553;50.766;2.900;2023-12-04T06:57:44;99651.16;;;1.18;95.55
60852;BME280;48553;50.766;2.900;2023-12-04T07:00:44;99642.44;;;1.21;95.73
60852;BME280;48553;50.766;2.900;2023-12-04T07:03:45;99621.75;;;1.17;95.69
60852;BME280;48553;50.766;2.900;2023-12-04T07:06:45;99631.16;;;1.19;95.88
60852;BME280;48553;50.766;2.900;2023-12-04T07:09:46;99625.47;;;1.21;96.05
60852;BME280;48553;50.766;2.900;2023-12-04T07:12:46;99625.25;;;1.17;96.57
60852;BME280;48553;50.766;2.900;2023-12-04T07:15:46;99612.25;;;1.19;96.31
60852;BME280;48553;50.766;2.900;2023-12-04T07:18:47;99619.56;;;1.19;96.28
60852;BME280;48553;50.766;2.900;2023-12-04T07:21:48;99602.56;;;1.18;96.28
60852;BME280;48553;50.766;2.900;2023-12-04T07:24:48;99600.38;;;1.20;96.72
60852;BME280;48553;50.766;2.900;2023-12-04T07:27:49;99602.88;;;1.17;96.44
60852;BME280;48553;50.766;2.900;2023-12-04T07:30:49;99598.56;;;1.16;97.00
60852;BME280;48553;50.766;2.900;2023-12-04T07:33:50;99602.56;;;1.18;97.23
60852;BME280;48553;50.766;2.900;2023-12-04T07:36:50;99610.06;;;1.21;97.01
60852;BME280;48553;50.766;2.900;2023-12-04T07:39:51;99583.69;;;1.18;96.77
60852;BME280;48553;50.766;2.900;2023-12-04T07:42:51;99610.34;;;1.20;97.14
60852;BME280;48553;50.766;2.900;2023-12-04T07:45:51;99611.97;;;1.21;97.03
60852;BME280;48553;50.766;2.900;2023-12-04T07:48:52;99603.53;;;1.22;97.37
60852;BME280;48553;50.766;2.900;2023-12-04T07:51:52;99600.84;;;1.22;97.37
60852;BME280;48553;50.766;2.900;2023-12-04T07:54:53;99594.88;;;1.25;97.33
60852;BME280;48553;50.766;2.900;2023-12-04T07:57:53;99584.66;;;1.22;97.50
60852;BME280;48553;50.766;2.900;2023-12-04T08:00:53;99585.97;;;1.25;97.31
60852;BME280;48553;50.766;2.900;2023-12-04T08:03:54;99585.16;;;1.24;97.32
60852;BME280;48553;50.766;2.900;2023-12-04T08:06:54;99578.16;;;1.23;97.50
60852;BME280;48553;50.766;2.900;2023-12-04T08:09:55;99574.34;;;1.24;97.61
60852;BME280;48553;50.766;2.900;2023-12-04T08:12:56;99557.66;;;1.22;97.39
60852;BME280;48553;50.766;2.900;2023-12-04T08:15:56;99563.06;;;1.22;97.65
60852;BME280;48553;50.766;2.900;2023-12-04T08:18:56;99559.00;;;1.25;97.41
60852;BME280;48553;50.766;2.900;2023-12-04T08:21:57;99549.50;;;1.28;97.50
60852;BME280;48553;50.766;2.900;2023-12-04T08:24:58;99552.19;;;1.28;97.39
60852;BME280;48553;50.766;2.900;2023-12-04T08:27:59;99550.91;;;1.25;97.79
60852;BME280;48553;50.766;2.900;2023-12-04T08:31:00;99548.66;;;1.27;97.57
60852;BME280;48553;50.766;2.900;2023-12-04T08:34:00;99551.38;;;1.27;98.03
60852;BME280;48553;50.766;2.900;2023-12-04T08:37:01;99544.88;;;1.28;98.03
60852;BME280;48553;50.766;2.900;2023-12-04T08:40:01;99542.97;;;1.29;97.81
60852;BME280;48553;50.766;2.900;2023-12-04T08:43:03;99551.06;;;1.29;97.65
60852;BME280;48553;50.766;2.900;2023-12-04T08:46:04;99544.88;;;1.28;97.87
60852;BME280;48553;50.766;2.900;2023-12-04T08:49:04;99537.56;;;1.29;98.02
60852;BME280;48553;50.766;2.900;2023-12-04T08:52:05;99536.50;;;1.30;98.26
60852;BME280;48553;50.766;2.900;2023-12-04T08:55:06;99531.88;;;1.30;98.44
60852;BME280;48553;50.766;2.900;2023-12-04T08:58:07;99525.88;;;1.33;98.27
60852;BME280;48553;50.766;2.900;2023-12-04T09:01:08;99531.25;;;1.33;98.16
60852;BME280;48553;50.766;2.900;2023-12-04T09:04:09;99524.47;;;1.36;98.59
60852;BME280;48553;50.766;2.900;2023-12-04T09:07:09;99539.88;;;1.35;98.36
60852;BME280;48553;50.766;2.900;2023-12-04T09:10:10;99543.69;;;1.34;98.22
60852;BME280;48553;50.766;2.900;2023-12-04T09:13:11;99522.66;;;1.31;98.34
60852;BME280;48553;50.766;2.900;2023-12-04T09:16:11;99526.38;;;1.35;98.65
60852;BME280;48553;50.766;2.900;2023-12-04T09:19:11;99532.06;;;1.34;98.90
60852;BME280;48553;50.766;2.900;2023-12-04T09:22:12;99516.97;;;1.33;99.20
60852;BME280;48553;50.766;2.900;2023-12-04T09:25:12;99515.06;;;1.33;98.87
60852;BME280;48553;50.766;2.900;2023-12-04T09:28:13;99512.38;;;1.33;99.04
60852;BME280;48553;50.766;2.900;2023-12-04T09:31:13;99510.47;;;1.34;99.20
60852;BME280;48553;50.766;2.900;2023-12-04T09:34:14;99507.19;;;1.37;99.45
60852;BME280;48553;50.766;2.900;2023-12-04T09:37:14;99512.88;;;1.35;99.56
60852;BME280;48553;50.766;2.900;2023-12-04T09:40:15;99509.09;;;1.36;99.59
60852;BME280;48553;50.766;2.900;2023-12-04T09:43:15;99506.06;;;1.38;99.32
60852;BME280;48553;50.766;2.900;2023-12-04T09:46:16;99509.56;;;1.38;99.56
60852;BME280;48553;50.766;2.900;2023-12-04T09:49:18;99503.84;;;1.40;100.00
60852;BME280;48553;50.766;2.900;2023-12-04T09:52:19;99501.44;;;1.38;100.00
60852;BME280;48553;50.766;2.900;2023-12-04T09:55:20;99505.28;;;1.37;99.76
60852;BME280;48553;50.766;2.900;2023-12-04T09:58:21;99508.16;;;1.41;99.84
60852;BME280;48553;50.766;2.900;2023-12-04T10:01:23;99491.34;;;1.44;100.00
60852;BME280;48553;50.766;2.900;2023-12-04T10:04:24;99501.66;;;1.42;99.98
60852;BME280;48553;50.766;2.900;2023-12-04T10:07:25;99474.66;;;1.42;100.00
60852;BME280;48553;50.766;2.900;2023-12-04T10:10:25;99477.66;;;1.40;100.00
60852;BME280;48553;50.766;2.900;2023-12-04T10:13:27;99472.75;;;1.42;100.00
60852;BME280;48553;50.766;2.900;2023-12-04T10:16:35;99463.06;;;1.41;100.00
60852;BME280;48553;50.766;2.900;2023-12-04T10:19:36;99459.44;;;1.46;100.00
60852;BME280;48553;50.766;2.900;2023-12-04T10:22:36;99441.47;;;1.41;100.00
60852;BME280;48553;50.766;2.900;2023-12-04T10:25:38;99439.28;;;1.43;100.00
60852;BME280;48553;50.766;2.900;2023-12-04T10:28:38;99424.66;;;1.44;100.00
60852;BME280;48553;50.766;2.900;2023-12-04T10:31:39;99426.44;;;1.49;100.00
60852;BME280;48553;50.766;2.900;2023-12-04T10:34:42;99417.84;;;1.47;100.00
60852;BME280;48553;50.766;2.900;2023-12-04T10:37:43;99420.03;;;1.45;100.00
60852;BME280;48553;50.766;2.900;2023-12-04T10:40:43;99414.66;;;1.45;100.00
60852;BME280;48553;50.766;2.900;2023-12-04T10:43:47;99404.84;;;1.49;100.00
60852;BME280;48553;50.766;2.900;2023-12-04T10:46:48;99399.44;;;1.49;100.00
60852;BME280;48553;50.766;2.900;2023-12-04T10:49:49;99387.72;;;1.54;100.00
60852;BME280;48553;50.766;2.900;2023-12-04T10:52:50;99377.09;;;1.57;100.00
60852;BME280;48553;50.766;2.900;2023-12-04T10:55:56;99372.31;;;1.54;100.00
60852;BME280;48553;50.766;2.900;2023-12-04T10:58:59;99358.81;;;1.54;100.00
60852;BME280;48553;50.766;2.900;2023-12-04T11:02:05;99352.81;;;1.57;100.00
60852;BME280;48553;50.766;2.900;2023-12-04T11:05:08;99338.19;;;1.58;100.00
60852;BME280;48553;50.766;2.900;2023-12-04T11:08:16;99342.78;;;1.58;100.00
60852;BME280;48553;50.766;2.900;2023-12-04T11:11:29;99343.28;;;1.60;100.00
60852;BME280;48553;50.766;2.900;2023-12-04T11:14:37;99337.09;;;1.59;100.00
60852;BME280;48553;50.766;2.900;2023-12-04T11:17:42;99340.75;;;1.63;100.00
60852;BME280;48553;50.766;2.900;2023-12-04T11:20:50;99316.91;;;1.65;100.00
60852;BME280;48553;50.766;2.900;2023-12-04T11:23:51;99309.16;;;1.64;100.00
60852;BME280;48553;50.766;2.900;2023-12-04T11:26:52;99306.31;;;1.69;100.00
60852;BME280;48553;50.766;2.900;2023-12-04T11:29:53;99307.41;;;1.68;100.00
60852;BME280;48553;50.766;2.900;2023-12-04T11:32:53;99295.03;;;1.67;100.00
60852;BME280;48553;50.766;2.900;2023-12-04T11:36:08;99287.09;;;1.71;100.00
60852;BME280;48553;50.766;2.900;2023-12-04T11:39:10;99282.97;;;1.73;100.00
60852;BME280;48553;50.766;2.900;2023-12-04T11:42:11;99289.66;;;1.76;100.00
60852;BME280;48553;50.766;2.900;2023-12-04T11:45:20;99283.75;;;1.74;100.00
60852;BME280;48553;50.766;2.900;2023-12-04T11:48:23;99279.94;;;1.75;100.00
60852;BME280;48553;50.766;2.900;2023-12-04T11:55:05;99265.66;;;1.74;100.00
60852;BME280;48553;50.766;2.900;2023-12-04T12:01:09;99256.59;;;1.79;100.00
60852;BME280;48553;50.766;2.900;2023-12-04T12:04:09;99251.69;;;1.81;100.00
60852;BME280;48553;50.766;2.900;2023-12-04T12:07:10;99254.38;;;1.81;100.00
60852;BME280;48553;50.766;2.900;2023-12-04T12:10:12;99235.78;;;1.79;100.00
60852;BME280;48553;50.766;2.900;2023-12-04T12:13:13;99239.78;;;1.82;100.00
60852;BME280;48553;50.766;2.900;2023-12-04T12:16:14;99240.25;;;1.84;100.00
60852;BME280;48553;50.766;2.900;2023-12-04T12:19:14;99226.75;;;1.84;100.00
60852;BME280;48553;50.766;2.900;2023-12-04T12:22:15;99218.03;;;1.87;100.00
60852;BME280;48553;50.766;2.900;2023-12-04T12:25:17;99222.31;;;1.88;100.00
60852;BME280;48553;50.766;2.900;2023-12-04T12:28:18;99205.50;;;1.91;100.00
60852;BME280;48553;50.766;2.900;2023-12-04T12:31:19;99203.41;;;1.88;100.00
60852;BME280;48553;50.766;2.900;2023-12-04T12:34:19;99189.88;;;1.88;100.00
60852;BME280;48553;50.766;2.900;2023-12-04T12:37:20;99189.28;;;1.91;100.00
60852;BME280;48553;50.766;2.900;2023-12-04T12:40:21;99179.56;;;1.90;100.00
60852;BME280;48553;50.766;2.900;2023-12-04T12:43:21;99178.63;;;1.95;100.00
60852;BME280;48553;50.766;2.900;2023-12-04T12:46:23;99170.03;;;1.93;100.00
60852;BME280;48553;50.766;2.900;2023-12-04T12:49:23;99173.22;;;1.95;100.00
60852;BME280;48553;50.766;2.900;2023-12-04T12:52:25;99159.88;;;1.98;100.00
60852;BME280;48553;50.766;2.900;2023-12-04T12:55:27;99160.84;;;2.02;100.00
60852;BME280;48553;50.766;2.900;2023-12-04T12:58:28;99145.41;;;2.03;100.00
60852;BME280;48553;50.766;2.900;2023-12-04T13:01:32;99148.13;;;2.03;100.00
60852;BME280;48553;50.766;2.900;2023-12-04T13:04:36;99143.50;;;2.03;100.00
60852;BME280;48553;50.766;2.900;2023-12-04T13:07:37;99139.38;;;2.06;100.00
60852;BME280;48553;50.766;2.900;2023-12-04T13:10:38;99139.69;;;2.04;100.00
60852;BME280;48553;50.766;2.900;2023-12-04T13:13:38;99131.09;;;2.11;100.00
60852;BME280;48553;50.766;2.900;2023-12-04T13:16:39;99121.41;;;2.10;100.00
60852;BME280;48553;50.766;2.900;2023-12-04T13:19:40;99119.50;;;2.11;100.00
60852;BME280;48553;50.766;2.900;2023-12-04T13:22:40;99116.00;;;2.10;100.00
60852;BME280;48553;50.766;2.900;2023-12-04T13:25:41;99112.16;;;2.11;100.00
60852;BME280;48553;50.766;2.900;2023-12-04T13:28:41;99115.34;;;2.13;100.00
60852;BME280;48553;50.766;2.900;2023-12-04T13:31:42;99100.75;;;2.14;100.00
60852;BME280;48553;50.766;2.900;2023-12-04T13:34:42;99096.91;;;2.15;100.00
60852;BME280;48553;50.766;2.900;2023-12-04T13:37:43;99098.53;;;2.16;100.00
60852;BME280;48553;50.766;2.900;2023-12-04T13:40:43;99078.78;;;2.16;100.00
60852;BME280;48553;50.766;2.900;2023-12-04T13:43:59;99076.56;;;2.18;100.00
60852;BME280;48553;50.766;2.900;2023-12-04T13:47:00;99073.84;;;2.18;100.00
60852;BME280;48553;50.766;2.900;2023-12-04T13:50:00;99079.75;;;2.20;100.00
60852;BME280;48553;50.766;2.900;2023-12-04T13:53:01;99071.63;;;2.20;100.00
60852;BME280;48553;50.766;2.900;2023-12-04T13:56:02;99065.59;;;2.23;100.00
60852;BME280;48553;50.766;2.900;2023-12-04T13:59:03;99070.19;;;2.22;100.00
60852;BME280;48553;50.766;2.900;2023-12-04T14:02:05;99059.84;;;2.24;100.00
60852;BME280;48553;50.766;2.900;2023-12-04T14:05:10;99050.31;;;2.27;100.00
60852;BME280;48553;50.766;2.900;2023-12-04T14:08:15;99047.59;;;2.27;100.00
60852;BME280;48553;50.766;2.900;2023-12-04T14:11:16;99053.81;;;2.27;100.00
60852;BME280;48553;50.766;2.900;2023-12-04T14:14:16;99043.00;;;2.27;100.00
60852;BME280;48553;50.766;2.900;2023-12-04T14:17:17;99039.50;;;2.27;100.00
60852;BME280;48553;50.766;2.900;2023-12-04T14:20:18;99035.69;;;2.28;100.00
60852;BME280;48553;50.766;2.900;2023-12-04T14:23:18;99035.38;;;2.29;100.00
60852;BME280;48553;50.766;2.900;2023-12-04T14:26:19;99018.34;;;2.29;100.00
60852;BME280;48553;50.766;2.900;2023-12-04T14:29:19;99030.75;;;2.30;100.00
60852;BME280;48553;50.766;2.900;2023-12-04T14:32:20;99022.66;;;2.30;100.00
60852;BME280;48553;50.766;2.900;2023-12-04T14:35:21;99023.91;;;2.33;100.00
60852;BME280;48553;50.766;2.900;2023-12-04T14:38:21;99006.91;;;2.32;100.00
60852;BME280;48553;50.766;2.900;2023-12-04T14:41:22;99020.06;;;2.34;100.00
60852;BME280;48553;50.766;2.900;2023-12-04T14:44:23;99007.38;;;2.34;100.00
60852;BME280;48553;50.766;2.900;2023-12-04T14:47:23;99003.53;;;2.35;100.00
60852;BME280;48553;50.766;2.900;2023-12-04T14:50:24;98992.72;;;2.35;100.00
60852;BME280;48553;50.766;2.900;2023-12-04T14:53:24;99007.81;;;2.36;100.00
60852;BME280;48553;50.766;2.900;2023-12-04T14:56:24;98979.69;;;2.37;100.00
60852;BME280;48553;50.766;2.900;2023-12-04T14:59:28;98987.00;;;2.37;100.00
60852;BME280;48553;50.766;2.900;2023-12-04T15:02:40;98994.78;;;2.38;100.00
60852;BME280;48553;50.766;2.900;2023-12-04T15:05:43;98991.75;;;2.40;100.00
60852;BME280;48553;50.766;2.900;2023-12-04T15:09:03;98984.44;;;2.40;100.00
60852;BME280;48553;50.766;2.900;2023-12-04T15:12:23;98975.22;;;2.41;100.00
60852;BME280;48553;50.766;2.900;2023-12-04T15:15:42;98980.28;;;2.43;100.00
60852;BME280;48553;50.766;2.900;2023-12-04T15:19:01;98976.78;;;2.42;100.00
60852;BME280;48553;50.766;2.900;2023-12-04T15:22:04;98966.44;;;2.44;100.00
60852;BME280;48553;50.766;2.900;2023-12-04T15:25:05;98973.78;;;2.44;100.00
60852;BME280;48553;50.766;2.900;2023-12-04T15:28:11;98968.84;;;2.46;100.00
60852;BME280;48553;50.766;2.900;2023-12-04T15:31:12;98975.03;;;2.46;100.00
60852;BME280;48553;50.766;2.900;2023-12-04T15:34:12;98964.22;;;2.46;100.00
60852;BME280;48553;50.766;2.900;2023-12-04T15:37:13;98961.19;;;2.48;100.00
60852;BME280;48553;50.766;2.900;2023-12-04T15:40:13;98959.59;;;2.47;100.00
60852;BME280;48553;50.766;2.900;2023-12-04T15:43:14;98953.09;;;2.48;100.00
60852;BME280;48553;50.766;2.900;2023-12-04T15:46:15;98953.09;;;2.48;100.00
60852;BME280;48553;50.766;2.900;2023-12-04T15:49:17;98948.16;;;2.50;100.00
60852;BME280;48553;50.766;2.900;2023-12-04T15:52:18;98956.25;;;2.50;100.00
60852;BME280;48553;50.766;2.900;2023-12-04T15:55:19;98946.22;;;2.50;100.00
60852;BME280;48553;50.766;2.900;2023-12-04T15:58:20;98944.31;;;2.51;100.00
60852;BME280;48553;50.766;2.900;2023-12-04T16:01:21;98944.00;;;2.53;100.00
60852;BME280;48553;50.766;2.900;2023-12-04T16:04:22;98933.19;;;2.53;100.00
60852;BME280;48553;50.766;2.900;2023-12-04T16:07:22;98935.53;;;2.54;100.00
60852;BME280;48553;50.766;2.900;2023-12-04T16:10:23;98926.63;;;2.54;100.00
60852;BME280;48553;50.766;2.900;2023-12-04T16:13:23;98925.53;;;2.55;100.00